sensor_id;sensor_type;location;lat;lon;timestamp;temperature;humidity
46340;DHT22;47273;49.274;8.708;2023-02-07T05:01:37;1.00;95.80
46340;DHT22;47273;49.274;8.708;2023-02-07T05:04:06;1.00;95.90
46340;DHT22;47273;49.274;8.708;2023-02-07T05:06:32;1.00;96.10
46340;DHT22;47273;49.274;8.708;2023-02-07T05:08:58;0.90;95.90
46340;DHT22;47273;49.274;8.708;2023-02-07T05:11:23;0.90;95.80
46340;DHT22;47273;49.274;8.708;2023-02-07T05:13:49;0.90;96.00
46340;DHT22;47273;49.274;8.708;2023-02-07T05:16:15;0.80;95.80
46340;DHT22;47273;49.274;8.708;2023-02-07T05:18:40;0.90;95.90
46340;DHT22;47273;49.274;8.708;2023-02-07T05:21:06;0.80;95.80
46340;DHT22;47273;49.274;8.708;2023-02-07T05:23:32;0.80;95.90
46340;DHT22;47273;49.274;8.708;2023-02-07T05:25:57;0.70;96.00
46340;DHT22;47273;49.274;8.708;2023-02-07T05:28:23;0.80;96.00
46340;DHT22;47273;49.274;8.708;2023-02-07T05:30:53;0.70;96.10
46340;DHT22;47273;49.274;8.708;2023-02-07T05:33:19;0.70;96.10
46340;DHT22;47273;49.274;8.708;2023-02-07T05:35:45;0.70;96.10
46340;DHT22;47273;49.274;8.708;2023-02-07T05:38:13;0.60;96.20
46340;DHT22;47273;49.274;8.708;2023-02-07T05:40:41;0.60;96.20
46340;DHT22;47273;49.274;8.708;2023-02-07T05:43:07;0.70;96.00
46340;DHT22;47273;49.274;8.708;2023-02-07T05:45:34;0.60;96.10
46340;DHT22;47273;49.274;8.708;2023-02-07T05:48:00;0.50;96.10
46340;DHT22;47273;49.274;8.708;2023-02-07T05:50:26;0.50;96.20
46340;DHT22;47273;49.274;8.708;2023-02-07T05:52:52;0.50;96.20
46340;DHT22;47273;49.274;8.708;2023-02-07T05:55:18;0.40;96.30
46340;DHT22;47273;49.274;8.708;2023-02-07T05:57:44;0.50;96.20
46340;DHT22;47273;49.274;8.708;2023-02-07T06:00:11;0.40;96.30
46340;DHT22;47273;49.274;8.708;2023-02-07T06:02:41;0.40;96.30
46340;DHT22;47273;49.274;8.708;2023-02-07T06:05:08;0.40;96.50
46340;DHT22;47273;49.274;8.708;2023-02-07T06:07:35;0.40;96.20
46340;DHT22;47273;49.274;8.708;2023-02-07T06:10:01;0.40;96.10
46340;DHT22;47273;49.274;8.708;2023-02-07T06:12:27;0.40;96.30
46340;DHT22;47273;49.274;8.708;2023-02-07T06:14:52;0.40;96.30
46340;DHT22;47273;49.274;8.708;2023-02-07T06:17:21;0.40;96.30
46340;DHT22;47273;49.274;8.708;2023-02-07T06:19:46;0.30;96.50
46340;DHT22;47273;49.274;8.708;2023-02-07T06:22:13;0.40;96.30
46340;DHT22;47273;49.274;8.708;2023-02-07T06:24:39;0.30;96.30
46340;DHT22;47273;49.274;8.708;2023-02-07T06:27:04;0.30;96.40
46340;DHT22;47273;49.274;8.708;2023-02-07T06:29:30;0.30;96.30
46340;DHT22;47273;49.274;8.708;2023-02-07T06:31:56;0.20;96.30
46340;DHT22;47273;49.274;8.708;2023-02-07T06:34:21;0.20;96.40
46340;DHT22;47273;49.274;8.708;2023-02-07T06:36:47;0.20;96.30
46340;DHT22;47273;49.274;8.708;2023-02-07T06:39:12;0.20;96.40
46340;DHT22;47273;49.274;8.708;2023-02-07T06:41:38;0.20;96.40
46340;DHT22;47273;49.274;8.708;2023-02-07T06:44:04;0.20;96.30
46340;DHT22;47273;49.274;8.708;2023-02-07T06:46:30;0.10;96.40
46340;DHT22;47273;49.274;8.708;2023-02-07T06:48:55;0.10;96.40
46340;DHT22;47273;49.274;8.708;2023-02-07T06:51:21;0.00;96.80
46340;DHT22;47273;49.274;8.708;2023-02-07T06:53:47;0.00;96.80
46340;DHT22;47273;49.274;8.708;2023-02-07T06:56:12;0.00;96.80
46340;DHT22;47273;49.274;8.708;2023-02-07T06:58:38;0.10;96.90
46340;DHT22;47273;49.274;8.708;2023-02-07T07:01:04;0.10;96.90
46340;DHT22;47273;49.274;8.708;2023-02-07T07:03:30;0.10;96.90
46340;DHT22;47273;49.274;8.708;2023-02-07T07:05:56;0.00;97.10
46340;DHT22;47273;49.274;8.708;2023-02-07T07:08:23;0.00;97.20
46340;DHT22;47273;49.274;8.708;2023-02-07T07:10:52;-0.10;97.20
46340;DHT22;47273;49.274;8.708;2023-02-07T07:13:18;-0.10;97.30
46340;DHT22;47273;49.274;8.708;2023-02-07T07:15:45;0.00;97.10
46340;DHT22;47273;49.274;8.708;2023-02-07T07:18:11;-0.10;97.20
46340;DHT22;47273;49.274;8.708;2023-02-07T07:20:37;-0.10;97.10
46340;DHT22;47273;49.274;8.708;2023-02-07T07:23:02;-0.10;97.50
46340;DHT22;47273;49.274;8.708;2023-02-07T07:25:28;-0.20;97.50
46340;DHT22;47273;49.274;8.708;2023-02-07T07:27:54;-0.20;97.50
46340;DHT22;47273;49.274;8.708;2023-02-07T07:30:19;-0.20;97.60
46340;DHT22;47273;49.274;8.708;2023-02-07T07:32:46;-0.20;97.50
46340;DHT22;47273;49.274;8.708;2023-02-07T07:35:11;-0.20;97.40
46340;DHT22;47273;49.274;8.708;2023-02-07T07:37:37;-0.20;97.40
46340;DHT22;47273;49.274;8.708;2023-02-07T07:40:03;-0.20;97.50
46340;DHT22;47273;49.274;8.708;2023-02-07T07:42:29;-0.20;97.40
46340;DHT22;47273;49.274;8.708;2023-02-07T07:44:57;-0.10;97.20
46340;DHT22;47273;49.274;8.708;2023-02-07T07:47:23;-0.10;97.10
46340;DHT22;47273;49.274;8.708;2023-02-07T07:49:51;0.00;97.00
46340;DHT22;47273;49.274;8.708;2023-02-07T07:52:16;0.00;97.00
46340;DHT22;47273;49.274;8.708;2023-02-07T07:54:42;0.10;96.70
46340;DHT22;47273;49.274;8.708;2023-02-07T07:57:08;0.10;96.80
46340;DHT22;47273;49.274;8.708;2023-02-07T07:59:33;0.00;96.80
46340;DHT22;47273;49.274;8.708;2023-02-07T08:01:59;0.10;96.70
46340;DHT22;47273;49.274;8.708;2023-02-07T08:04:24;0.10;96.50
46340;DHT22;47273;49.274;8.708;2023-02-07T08:06:50;0.20;96.70
46340;DHT22;47273;49.274;8.708;2023-02-07T08:09:16;0.30;96.30
46340;DHT22;47273;49.274;8.708;2023-02-07T08:11:41;0.40;96.10
46340;DHT22;47273;49.274;8.708;2023-02-07T08:14:07;0.40;95.90
46340;DHT22;47273;49.274;8.708;2023-02-07T08:16:33;0.50;95.70
46340;DHT22;47273;49.274;8.708;2023-02-07T08:18:58;0.50;95.50
46340;DHT22;47273;49.274;8.708;2023-02-07T08:21:24;0.60;95.50
46340;DHT22;47273;49.274;8.708;2023-02-07T08:23:52;0.70;95.20
46340;DHT22;47273;49.274;8.708;2023-02-07T08:26:17;0.80;94.90
46340;DHT22;47273;49.274;8.708;2023-02-07T08:28:43;0.90;94.90
46340;DHT22;47273;49.274;8.708;2023-02-07T08:31:09;1.00;94.50
46340;DHT22;47273;49.274;8.708;2023-02-07T08:33:36;1.00;94.00
46340;DHT22;47273;49.274;8.708;2023-02-07T08:36:02;1.00;94.40
46340;DHT22;47273;49.274;8.708;2023-02-07T08:38:32;1.10;93.90
46340;DHT22;47273;49.274;8.708;2023-02-07T08:40:58;1.10;93.80
46340;DHT22;47273;49.274;8.708;2023-02-07T08:43:24;1.20;94.00
46340;DHT22;47273;49.274;8.708;2023-02-07T08:45:49;1.20;93.60
46340;DHT22;47273;49.274;8.708;2023-02-07T08:48:15;1.30;93.80
46340;DHT22;47273;49.274;8.708;2023-02-07T08:50:40;1.30;93.50
46340;DHT22;47273;49.274;8.708;2023-02-07T08:53:06;1.30;93.00
46340;DHT22;47273;49.274;8.708;2023-02-07T08:55:32;1.20;93.10
46340;DHT22;47273;49.274;8.708;2023-02-07T08:57:58;1.30;93.50
46340;DHT22;47273;49.274;8.708;2023-02-07T09:00:24;1.40;93.50
46340;DHT22;47273;49.274;8.708;2023-02-07T09:02:49;1.50;93.30
46340;DHT22;47273;49.274;8.708;2023-02-07T09:05:15;1.50;93.20
46340;DHT22;47273;49.274;8.708;2023-02-07T09:07:41;1.60;93.20
46340;DHT22;47273;49.274;8.708;2023-02-07T09:10:07;1.70;93.10
46340;DHT22;47273;49.274;8.708;2023-02-07T09:12:34;1.70;92.80
46340;DHT22;47273;49.274;8.708;2023-02-07T09:15:01;1.80;93.00
46340;DHT22;47273;49.274;8.708;2023-02-07T09:17:26;1.80;92.80
46340;DHT22;47273;49.274;8.708;2023-02-07T09:19:52;1.90;92.70
46340;DHT22;47273;49.274;8.708;2023-02-07T09:22:18;1.90;92.80
46340;DHT22;47273;49.274;8.708;2023-02-07T09:24:43;2.00;92.80
46340;DHT22;47273;49.274;8.708;2023-02-07T09:27:09;2.10;92.30
46340;DHT22;47273;49.274;8.708;2023-02-07T09:29:35;2.10;92.50
46340;DHT22;47273;49.274;8.708;2023-02-07T09:32:01;2.20;92.50
46340;DHT22;47273;49.274;8.708;2023-02-07T09:34:26;2.30;92.50
46340;DHT22;47273;49.274;8.708;2023-02-07T09:36:52;2.40;92.50
46340;DHT22;47273;49.274;8.708;2023-02-07T09:39:18;2.50;92.20
46340;DHT22;47273;49.274;8.708;2023-02-07T09:47:18;2.70;91.80
46340;DHT22;47273;49.274;8.708;2023-02-07T09:49:49;2.70;90.80
46340;DHT22;47273;49.274;8.708;2023-02-07T09:52:20;2.80;91.30
46340;DHT22;47273;49.274;8.708;2023-02-07T09:54:50;2.90;91.50
46340;DHT22;47273;49.274;8.708;2023-02-07T10:02:49;3.20;90.80
46340;DHT22;47273;49.274;8.708;2023-02-07T10:05:25;3.30;91.20
46340;DHT22;47273;49.274;8.708;2023-02-07T10:07:51;3.40;90.20
46340;DHT22;47273;49.274;8.708;2023-02-07T10:10:38;3.40;90.20
46340;DHT22;47273;49.274;8.708;2023-02-07T10:16:12;3.50;90.50
46340;DHT22;47273;49.274;8.708;2023-02-07T10:22:02;3.70;89.40
46340;DHT22;47273;49.274;8.708;2023-02-07T10:24:59;3.80;89.40
46340;DHT22;47273;49.274;8.708;2023-02-07T10:27:33;3.90;88.60
46340;DHT22;47273;49.274;8.708;2023-02-07T10:30:14;3.90;88.90
46340;DHT22;47273;49.274;8.708;2023-02-07T10:32:40;3.90;87.90
46340;DHT22;47273;49.274;8.708;2023-02-07T10:35:20;4.00;87.00
46340;DHT22;47273;49.274;8.708;2023-02-07T10:37:49;4.20;88.90
46340;DHT22;47273;49.274;8.708;2023-02-07T10:40:25;4.20;87.20
46340;DHT22;47273;49.274;8.708;2023-02-07T10:43:03;4.30;88.00
46340;DHT22;47273;49.274;8.708;2023-02-07T10:45:31;4.50;88.50
46340;DHT22;47273;49.274;8.708;2023-02-07T10:47:57;4.60;87.70
46340;DHT22;47273;49.274;8.708;2023-02-07T10:50:25;4.70;87.00
46340;DHT22;47273;49.274;8.708;2023-02-07T10:52:53;4.90;86.50
46340;DHT22;47273;49.274;8.708;2023-02-07T10:55:44;5.00;87.40
46340;DHT22;47273;49.274;8.708;2023-02-07T10:58:22;5.20;87.30
46340;DHT22;47273;49.274;8.708;2023-02-07T11:00:51;5.30;85.70
46340;DHT22;47273;49.274;8.708;2023-02-07T11:03:21;5.40;85.50
46340;DHT22;47273;49.274;8.708;2023-02-07T11:05:56;5.50;85.40
46340;DHT22;47273;49.274;8.708;2023-02-07T11:08:30;5.70;86.20
46340;DHT22;47273;49.274;8.708;2023-02-07T11:10:59;5.80;83.00
46340;DHT22;47273;49.274;8.708;2023-02-07T11:13:27;5.90;84.70
46340;DHT22;47273;49.274;8.708;2023-02-07T11:18:46;6.20;84.40
46340;DHT22;47273;49.274;8.708;2023-02-07T11:21:34;6.30;83.30
46340;DHT22;47273;49.274;8.708;2023-02-07T11:29:20;6.90;84.30
46340;DHT22;47273;49.274;8.708;2023-02-07T11:31:48;6.90;81.00
46340;DHT22;47273;49.274;8.708;2023-02-07T11:36:53;7.30;83.10
46340;DHT22;47273;49.274;8.708;2023-02-07T11:39:21;7.50;81.70
46340;DHT22;47273;49.274;8.708;2023-02-07T11:41:58;7.60;80.60
46340;DHT22;47273;49.274;8.708;2023-02-07T11:44:26;7.80;80.50
46340;DHT22;47273;49.274;8.708;2023-02-07T11:46:55;7.90;80.70
46340;DHT22;47273;49.274;8.708;2023-02-07T11:49:26;8.10;78.50
46340;DHT22;47273;49.274;8.708;2023-02-07T11:51:55;8.30;77.00
46340;DHT22;47273;49.274;8.708;2023-02-07T11:54:22;8.40;79.00
46340;DHT22;47273;49.274;8.708;2023-02-07T11:56:50;8.70;78.90
46340;DHT22;47273;49.274;8.708;2023-02-07T11:59:24;8.90;78.30
46340;DHT22;47273;49.274;8.708;2023-02-07T12:01:55;9.00;74.20
46340;DHT22;47273;49.274;8.708;2023-02-07T12:04:33;9.00;74.60
46340;DHT22;47273;49.274;8.708;2023-02-07T12:09:45;9.20;70.90
46340;DHT22;47273;49.274;8.708;2023-02-07T12:12:35;9.20;73.00
46340;DHT22;47273;49.274;8.708;2023-02-07T12:15:37;9.30;69.80
46340;DHT22;47273;49.274;8.708;2023-02-07T12:20:42;9.70;69.90
46340;DHT22;47273;49.274;8.708;2023-02-07T12:23:36;9.70;70.40
46340;DHT22;47273;49.274;8.708;2023-02-07T12:28:59;10.20;71.10
46340;DHT22;47273;49.274;8.708;2023-02-07T12:31:40;10.40;71.00
46340;DHT22;47273;49.274;8.708;2023-02-07T12:34:16;10.50;71.30
46340;DHT22;47273;49.274;8.708;2023-02-07T12:36:47;10.70;70.60
46340;DHT22;47273;49.274;8.708;2023-02-07T12:39:23;10.90;70.20
46340;DHT22;47273;49.274;8.708;2023-02-07T12:41:55;10.90;66.20
46340;DHT22;47273;49.274;8.708;2023-02-07T12:44:37;11.00;67.70
46340;DHT22;47273;49.274;8.708;2023-02-07T12:56:48;11.80;67.90
46340;DHT22;47273;49.274;8.708;2023-02-07T13:04:10;11.80;62.70
46340;DHT22;47273;49.274;8.708;2023-02-07T13:06:47;12.00;64.30
46340;DHT22;47273;49.274;8.708;2023-02-07T13:09:28;12.20;64.60
46340;DHT22;47273;49.274;8.708;2023-02-07T13:12:09;12.50;64.00
46340;DHT22;47273;49.274;8.708;2023-02-07T13:20:05;12.90;61.80
46340;DHT22;47273;49.274;8.708;2023-02-07T13:22:48;13.00;63.80
46340;DHT22;47273;49.274;8.708;2023-02-07T13:25:45;13.20;60.20
46340;DHT22;47273;49.274;8.708;2023-02-07T13:28:27;13.10;58.40
46340;DHT22;47273;49.274;8.708;2023-02-07T13:30:55;13.10;58.30
46340;DHT22;47273;49.274;8.708;2023-02-07T13:35:55;13.10;59.90
46340;DHT22;47273;49.274;8.708;2023-02-07T13:49:35;14.10;59.80
46340;DHT22;47273;49.274;8.708;2023-02-07T13:52:10;14.10;57.20
46340;DHT22;47273;49.274;8.708;2023-02-07T13:57:46;13.90;56.90
46340;DHT22;47273;49.274;8.708;2023-02-07T14:03:23;13.90;58.20
46340;DHT22;47273;49.274;8.708;2023-02-07T14:05:52;14.20;58.40
46340;DHT22;47273;49.274;8.708;2023-02-07T14:34:30;13.10;55.80
46340;DHT22;47273;49.274;8.708;2023-02-07T14:36:56;12.90;55.60
46340;DHT22;47273;49.274;8.708;2023-02-07T14:42:10;12.30;56.40
46340;DHT22;47273;49.274;8.708;2023-02-07T14:44:39;12.10;56.40
46340;DHT22;47273;49.274;8.708;2023-02-07T14:47:07;11.90;54.80
46340;DHT22;47273;49.274;8.708;2023-02-07T14:49:47;12.00;57.00
46340;DHT22;47273;49.274;8.708;2023-02-07T14:57:58;11.30;57.00
46340;DHT22;47273;49.274;8.708;2023-02-07T15:00:45;11.30;54.80
46340;DHT22;47273;49.274;8.708;2023-02-07T15:03:15;11.10;54.60
46340;DHT22;47273;49.274;8.708;2023-02-07T15:05:49;10.90;55.50
46340;DHT22;47273;49.274;8.708;2023-02-07T15:08:21;10.80;56.30
46340;DHT22;47273;49.274;8.708;2023-02-07T15:13:32;10.30;57.00
46340;DHT22;47273;49.274;8.708;2023-02-07T15:18:41;9.90;57.00
46340;DHT22;47273;49.274;8.708;2023-02-07T15:21:16;9.60;56.90
46340;DHT22;47273;49.274;8.708;2023-02-07T15:23:46;9.40;56.60
46340;DHT22;47273;49.274;8.708;2023-02-07T15:26:17;9.40;58.20
46340;DHT22;47273;49.274;8.708;2023-02-07T15:28:43;9.30;57.60
46340;DHT22;47273;49.274;8.708;2023-02-07T15:31:14;9.30;57.70
46340;DHT22;47273;49.274;8.708;2023-02-07T15:36:34;9.20;58.70
46340;DHT22;47273;49.274;8.708;2023-02-07T15:41:39;9.10;57.80
46340;DHT22;47273;49.274;8.708;2023-02-07T15:44:06;9.00;58.10
46340;DHT22;47273;49.274;8.708;2023-02-07T15:49:28;8.80;59.00
46340;DHT22;47273;49.274;8.708;2023-02-07T15:52:00;8.70;58.90
46340;DHT22;47273;49.274;8.708;2023-02-07T15:54:27;8.60;58.00
46340;DHT22;47273;49.274;8.708;2023-02-07T15:57:02;8.60;59.40
46340;DHT22;47273;49.274;8.708;2023-02-07T15:59:30;8.60;58.10
46340;DHT22;47273;49.274;8.708;2023-02-07T16:01:58;8.60;58.60
46340;DHT22;47273;49.274;8.708;2023-02-07T16:04:30;8.50;58.80
46340;DHT22;47273;49.274;8.708;2023-02-07T16:07:15;8.30;59.10
46340;DHT22;47273;49.274;8.708;2023-02-07T16:09:43;8.10;59.30
46340;DHT22;47273;49.274;8.708;2023-02-07T16:15:56;7.80;60.20
46340;DHT22;47273;49.274;8.708;2023-02-07T16:18:43;7.60;60.20
46340;DHT22;47273;49.274;8.708;2023-02-07T16:21:24;7.50;61.40
46340;DHT22;47273;49.274;8.708;2023-02-07T16:23:59;7.30;61.10
46340;DHT22;47273;49.274;8.708;2023-02-07T16:26:28;7.20;60.90
46340;DHT22;47273;49.274;8.708;2023-02-07T16:28:54;6.90;61.30
46340;DHT22;47273;49.274;8.708;2023-02-07T16:31:20;6.70;61.60
46340;DHT22;47273;49.274;8.708;2023-02-07T16:33:46;6.60;62.00
46340;DHT22;47273;49.274;8.708;2023-02-07T16:36:13;6.60;62.60
46340;DHT22;47273;49.274;8.708;2023-02-07T16:38:40;6.50;63.10
46340;DHT22;47273;49.274;8.708;2023-02-07T16:41:05;6.40;62.80
46340;DHT22;47273;49.274;8.708;2023-02-07T16:43:38;6.20;63.30
46340;DHT22;47273;49.274;8.708;2023-02-07T16:46:05;6.10;62.90
46340;DHT22;47273;49.274;8.708;2023-02-07T16:48:30;5.80;63.70
46340;DHT22;47273;49.274;8.708;2023-02-07T16:50:56;5.70;64.20
46340;DHT22;47273;49.274;8.708;2023-02-07T16:53:23;5.80;64.60
46340;DHT22;47273;49.274;8.708;2023-02-07T16:55:53;5.60;64.90
46340;DHT22;47273;49.274;8.708;2023-02-07T16:58:28;5.60;65.20
46340;DHT22;47273;49.274;8.708;2023-02-07T17:00:54;5.60;65.20
46340;DHT22;47273;49.274;8.708;2023-02-07T17:03:21;5.40;65.60
46340;DHT22;47273;49.274;8.708;2023-02-07T17:05:47;5.30;65.50
46340;DHT22;47273;49.274;8.708;2023-02-07T17:08:19;5.10;65.90
46340;DHT22;47273;49.274;8.708;2023-02-07T17:10:58;4.90;66.60
46340;DHT22;47273;49.274;8.708;2023-02-07T17:13:24;4.80;67.10
46340;DHT22;47273;49.274;8.708;2023-02-07T17:15:49;4.80;67.20
46340;DHT22;47273;49.274;8.708;2023-02-07T17:18:15;4.80;67.00
46340;DHT22;47273;49.274;8.708;2023-02-07T17:20:41;4.80;67.10
46340;DHT22;47273;49.274;8.708;2023-02-07T17:23:07;4.70;67.70
46340;DHT22;47273;49.274;8.708;2023-02-07T17:25:32;4.70;67.70
46340;DHT22;47273;49.274;8.708;2023-02-07T17:27:58;4.70;67.60
46340;DHT22;47273;49.274;8.708;2023-02-07T17:30:32;4.70;67.80
46340;DHT22;47273;49.274;8.708;2023-02-07T17:32:59;4.50;67.70
46340;DHT22;47273;49.274;8.708;2023-02-07T17:35:24;4.50;68.20
46340;DHT22;47273;49.274;8.708;2023-02-07T17:37:50;4.40;68.50
46340;DHT22;47273;49.274;8.708;2023-02-07T17:40:53;4.40;68.50
46340;DHT22;47273;49.274;8.708;2023-02-07T17:43:12;4.30;68.70
46340;DHT22;47273;49.274;8.708;2023-02-07T17:45:38;4.20;69.00
46340;DHT22;47273;49.274;8.708;2023-02-07T17:48:04;4.20;69.00
46340;DHT22;47273;49.274;8.708;2023-02-07T17:50:33;4.10;69.40
46340;DHT22;47273;49.274;8.708;2023-02-07T17:52:59;4.10;69.40
46340;DHT22;47273;49.274;8.708;2023-02-07T17:55:30;4.10;69.60
46340;DHT22;47273;49.274;8.708;2023-02-07T17:57:56;4.00;69.90
46340;DHT22;47273;49.274;8.708;2023-02-07T18:00:28;4.00;69.80
46340;DHT22;47273;49.274;8.708;2023-02-07T18:02:54;3.90;70.00
46340;DHT22;47273;49.274;8.708;2023-02-07T18:05:20;3.90;70.10
46340;DHT22;47273;49.274;8.708;2023-02-07T18:07:46;3.90;70.20
46340;DHT22;47273;49.274;8.708;2023-02-07T18:12:48;4.00;70.10
46340;DHT22;47273;49.274;8.708;2023-02-07T18:15:14;4.00;70.20
46340;DHT22;47273;49.274;8.708;2023-02-07T18:17:42;3.90;70.10
46340;DHT22;47273;49.274;8.708;2023-02-07T18:20:13;3.90;70.10
46340;DHT22;47273;49.274;8.708;2023-02-07T18:22:39;3.90;69.90
46340;DHT22;47273;49.274;8.708;2023-02-07T18:25:05;3.90;70.10
46340;DHT22;47273;49.274;8.708;2023-02-07T18:27:32;3.80;70.20
46340;DHT22;47273;49.274;8.708;2023-02-07T18:29:58;3.80;70.40
46340;DHT22;47273;49.274;8.708;2023-02-07T18:32:23;3.70;70.40
46340;DHT22;47273;49.274;8.708;2023-02-07T18:34:49;3.70;70.30
46340;DHT22;47273;49.274;8.708;2023-02-07T18:37:15;3.70;70.80
46340;DHT22;47273;49.274;8.708;2023-02-07T18:39:40;3.60;70.40
46340;DHT22;47273;49.274;8.708;2023-02-07T18:42:06;3.60;71.10
46340;DHT22;47273;49.274;8.708;2023-02-07T18:44:32;3.60;70.70
46340;DHT22;47273;49.274;8.708;2023-02-07T18:46:57;3.60;70.60
46340;DHT22;47273;49.274;8.708;2023-02-07T18:49:23;3.60;70.40
46340;DHT22;47273;49.274;8.708;2023-02-07T18:51:49;3.60;70.50
46340;DHT22;47273;49.274;8.708;2023-02-07T18:54:14;3.50;70.50
46340;DHT22;47273;49.274;8.708;2023-02-07T18:56:40;3.50;70.80
46340;DHT22;47273;49.274;8.708;2023-02-07T18:59:06;3.50;70.60
46340;DHT22;47273;49.274;8.708;2023-02-07T19:01:34;3.40;70.60
46340;DHT22;47273;49.274;8.708;2023-02-07T19:03:59;3.50;70.60
46340;DHT22;47273;49.274;8.708;2023-02-07T19:06:31;3.40;70.50
46340;DHT22;47273;49.274;8.708;2023-02-07T19:08:57;3.30;70.50
46340;DHT22;47273;49.274;8.708;2023-02-07T19:11:23;3.20;70.90
46340;DHT22;47273;49.274;8.708;2023-02-07T19:13:48;3.30;70.80
46340;DHT22;47273;49.274;8.708;2023-02-07T19:16:17;3.30;70.80
46340;DHT22;47273;49.274;8.708;2023-02-07T19:18:43;3.20;70.60
46340;DHT22;47273;49.274;8.708;2023-02-07T19:21:15;3.20;70.80
46340;DHT22;47273;49.274;8.708;2023-02-07T19:23:46;3.10;70.80
46340;DHT22;47273;49.274;8.708;2023-02-07T19:26:12;3.10;71.00
46340;DHT22;47273;49.274;8.708;2023-02-07T19:28:38;3.00;71.20
46340;DHT22;47273;49.274;8.708;2023-02-07T19:31:06;3.00;71.40
46340;DHT22;47273;49.274;8.708;2023-02-07T19:33:32;2.90;71.50
46340;DHT22;47273;49.274;8.708;2023-02-07T19:36:06;2.90;71.70
46340;DHT22;47273;49.274;8.708;2023-02-07T19:38:31;2.80;71.70
46340;DHT22;47273;49.274;8.708;2023-02-07T19:40:57;2.90;71.80
46340;DHT22;47273;49.274;8.708;2023-02-07T19:43:23;2.90;72.40
46340;DHT22;47273;49.274;8.708;2023-02-07T19:45:49;2.90;71.70
46340;DHT22;47273;49.274;8.708;2023-02-07T19:48:15;2.90;71.90
46340;DHT22;47273;49.274;8.708;2023-02-07T19:50:41;2.90;72.20
46340;DHT22;47273;49.274;8.708;2023-02-07T19:53:06;2.80;72.40
46340;DHT22;47273;49.274;8.708;2023-02-07T19:55:32;2.70;72.50
46340;DHT22;47273;49.274;8.708;2023-02-07T19:58:01;2.70;72.80
46340;DHT22;47273;49.274;8.708;2023-02-07T20:00:27;2.70;72.90
46340;DHT22;47273;49.274;8.708;2023-02-07T20:02:57;2.60;73.70
46340;DHT22;47273;49.274;8.708;2023-02-07T20:05:23;2.60;73.10
46340;DHT22;47273;49.274;8.708;2023-02-07T20:07:49;2.60;73.10
46340;DHT22;47273;49.274;8.708;2023-02-07T20:10:15;2.60;73.10
46340;DHT22;47273;49.274;8.708;2023-02-07T20:12:41;2.60;73.40
46340;DHT22;47273;49.274;8.708;2023-02-07T20:15:07;2.60;73.80
46340;DHT22;47273;49.274;8.708;2023-02-07T20:17:34;2.60;74.30
46340;DHT22;47273;49.274;8.708;2023-02-07T20:20:00;2.60;74.00
46340;DHT22;47273;49.274;8.708;2023-02-07T20:22:26;2.50;74.20
46340;DHT22;47273;49.274;8.708;2023-02-07T20:24:52;2.40;74.30
46340;DHT22;47273;49.274;8.708;2023-02-07T20:27:17;2.30;74.60
46340;DHT22;47273;49.274;8.708;2023-02-07T20:29:43;2.30;74.60
46340;DHT22;47273;49.274;8.708;2023-02-07T20:32:09;2.30;74.40
46340;DHT22;47273;49.274;8.708;2023-02-07T20:34:39;2.30;74.20
46340;DHT22;47273;49.274;8.708;2023-02-07T20:37:09;2.30;74.20
46340;DHT22;47273;49.274;8.708;2023-02-07T20:39:35;2.40;73.80
46340;DHT22;47273;49.274;8.708;2023-02-07T20:42:02;2.40;73.70
46340;DHT22;47273;49.274;8.708;2023-02-07T20:44:28;2.40;73.60
46340;DHT22;47273;49.274;8.708;2023-02-07T20:46:55;2.30;73.80
46340;DHT22;47273;49.274;8.708;2023-02-07T20:49:23;2.20;74.10
46340;DHT22;47273;49.274;8.708;2023-02-07T20:51:51;2.30;74.00
46340;DHT22;47273;49.274;8.708;2023-02-07T20:54:19;2.20;74.10
46340;DHT22;47273;49.274;8.708;2023-02-07T20:56:46;2.20;74.00
46340;DHT22;47273;49.274;8.708;2023-02-07T20:59:19;2.20;74.20
46340;DHT22;47273;49.274;8.708;2023-02-07T21:01:45;2.10;74.20
46340;DHT22;47273;49.274;8.708;2023-02-07T21:04:11;2.10;74.00
46340;DHT22;47273;49.274;8.708;2023-02-07T21:06:37;2.20;74.20
46340;DHT22;47273;49.274;8.708;2023-02-07T21:09:05;2.10;74.20
46340;DHT22;47273;49.274;8.708;2023-02-07T21:11:42;2.10;74.30
46340;DHT22;47273;49.274;8.708;2023-02-07T21:14:19;2.00;74.40
46340;DHT22;47273;49.274;8.708;2023-02-07T21:16:47;2.00;74.70
46340;DHT22;47273;49.274;8.708;2023-02-07T21:19:13;2.00;74.80
46340;DHT22;47273;49.274;8.708;2023-02-07T21:21:39;1.90;75.00
46340;DHT22;47273;49.274;8.708;2023-02-07T21:24:06;1.90;74.90
46340;DHT22;47273;49.274;8.708;2023-02-07T21:26:31;1.90;75.20
46340;DHT22;47273;49.274;8.708;2023-02-07T21:28:59;1.80;75.30
46340;DHT22;47273;49.274;8.708;2023-02-07T21:31:26;1.80;75.40
46340;DHT22;47273;49.274;8.708;2023-02-07T21:33:51;1.80;75.50
46340;DHT22;47273;49.274;8.708;2023-02-07T21:36:28;1.80;75.40
46340;DHT22;47273;49.274;8.708;2023-02-07T21:38:55;1.80;75.40
46340;DHT22;47273;49.274;8.708;2023-02-07T21:41:24;1.80;75.10
46340;DHT22;47273;49.274;8.708;2023-02-07T21:43:52;1.90;74.90
